createdAt,value
2022-08-17T00:01:00.697Z,3.2
2022-08-17T00:01:57.576Z,3.2
2022-08-17T00:03:04.528Z,2.7
2022-08-17T00:03:57.668Z,3.9
2022-08-17T00:04:56.972Z,3.6
2022-08-17T00:06:02.687Z,4.1
2022-08-17T00:06:57.459Z,3.2
2022-08-17T00:07:57.053Z,3.8
2022-08-17T00:08:59.940Z,5.3
2022-08-17T00:09:57.723Z,6.6
2022-08-17T00:10:57.747Z,5.6
2022-08-17T00:12:41.414Z,3.9
2022-08-17T00:12:57.003Z,3.1
2022-08-17T00:14:01.118Z,5.7
2022-08-17T00:14:56.954Z,2.8
2022-08-17T00:16:00.027Z,2.7
2022-08-17T00:16:57.791Z,3.2
2022-08-17T00:17:57.397Z,3.4
2022-08-17T00:19:06.904Z,3.8
2022-08-17T00:19:57.045Z,4.3
2022-08-17T00:22:31.531Z,4.1
2022-08-17T00:23:05.906Z,3.2
2022-08-17T00:23:56.983Z,4.4
2022-08-17T00:25:57.343Z,4.6
2022-08-17T00:26:57.015Z,3.9
2022-08-17T00:27:56.943Z,4.2
2022-08-17T00:28:57.175Z,4.2
2022-08-17T00:29:57.002Z,4.6
2022-08-17T00:30:57.083Z,3.6
2022-08-17T00:31:56.938Z,4.3
2022-08-17T00:33:11.876Z,5.1
2022-08-17T00:33:56.996Z,3.6
2022-08-17T00:34:56.974Z,3.6
2022-08-17T00:35:58.679Z,3.3
2022-08-17T00:36:56.922Z,3.9
2022-08-17T00:37:57.030Z,3.7
2022-08-17T00:38:56.997Z,3.8
2022-08-17T00:41:57.162Z,3.3
2022-08-17T00:42:57.206Z,5.7
2022-08-17T00:44:00.545Z,5.3
2022-08-17T00:44:57.161Z,3.8
2022-08-17T00:45:58.098Z,3.5
2022-08-17T00:46:57.197Z,4.3
2022-08-17T00:47:56.957Z,4.2
2022-08-17T00:48:57.418Z,4.7
2022-08-17T00:49:57.012Z,4.1
2022-08-17T00:51:02.390Z,4.2
2022-08-17T00:52:11.933Z,4.2
2022-08-17T00:52:59.188Z,3.6
2022-08-17T00:54:07.510Z,5.0
2022-08-17T00:54:57.663Z,4.2
2022-08-17T00:57:03.223Z,4.3
2022-08-17T00:58:00.943Z,3.2
2022-08-17T00:58:57.357Z,3.8
2022-08-17T01:00:02.355Z,3.4
2022-08-17T01:00:57.302Z,3.3
2022-08-17T01:01:58.159Z,4.3
2022-08-17T01:03:03.015Z,3.1
2022-08-17T01:03:59.260Z,2.8
2022-08-17T01:04:57.516Z,4.2
2022-08-17T01:06:01.595Z,3.2
2022-08-17T01:06:58.784Z,7.2
2022-08-17T01:07:57.662Z,3.9
2022-08-17T01:08:59.084Z,3.7
2022-08-17T01:09:57.049Z,3.3
2022-08-17T01:11:02.398Z,3.4
2022-08-17T01:12:57.540Z,3.9
2022-08-17T01:13:57.029Z,3.7
2022-08-17T01:14:56.994Z,3.5
2022-08-17T01:15:58.819Z,2.9
2022-08-17T01:16:57.300Z,2.8
2022-08-17T01:17:56.970Z,2.6
2022-08-17T01:20:59.349Z,2.6
2022-08-17T01:22:07.175Z,3.4
2022-08-17T01:22:57.189Z,3.2
2022-08-17T01:23:57.214Z,3.8
2022-08-17T01:25:01.877Z,2.7
2022-08-17T01:25:59.176Z,3.5
2022-08-17T01:27:57.140Z,3.2
2022-08-17T01:28:57.433Z,2.7
2022-08-17T01:30:00.153Z,3.1
2022-08-17T01:30:59.417Z,2.5
2022-08-17T01:32:00.334Z,3.0
2022-08-17T01:32:57.004Z,2.7
2022-08-17T01:33:59.707Z,3.3
2022-08-17T01:34:57.746Z,3.0
2022-08-17T01:35:56.980Z,3.5
2022-08-17T01:36:57.678Z,3.3
2022-08-17T01:37:56.870Z,2.8
2022-08-17T01:38:56.961Z,3.0
2022-08-17T01:40:03.348Z,3.4
2022-08-17T01:41:06.580Z,3.6
2022-08-17T01:42:04.815Z,2.7
2022-08-17T01:43:01.079Z,4.0
2022-08-17T01:44:03.151Z,3.4
2022-08-17T01:45:01.711Z,3.2
2022-08-17T01:46:03.480Z,2.7
2022-08-17T01:46:57.002Z,3.8
2022-08-17T01:47:57.172Z,3.6
2022-08-17T01:48:57.984Z,3.8
2022-08-17T01:49:56.876Z,2.7
2022-08-17T01:50:57.083Z,3.7
2022-08-17T01:51:57.613Z,3.3
2022-08-17T01:53:02.522Z,2.7
2022-08-17T01:54:57.036Z,2.9
2022-08-17T01:56:03.452Z,2.7
2022-08-17T01:56:56.905Z,2.2
2022-08-17T01:57:58.162Z,3.3
2022-08-17T01:58:57.876Z,2.8
2022-08-17T01:59:56.939Z,3.4
2022-08-17T02:01:00.720Z,4.0
2022-08-17T02:01:57.019Z,3.5
2022-08-17T02:02:57.235Z,3.4
2022-08-17T02:04:00.834Z,2.8
2022-08-17T02:04:56.860Z,2.3
2022-08-17T02:05:57.459Z,2.1
2022-08-17T02:06:56.882Z,3.0
2022-08-17T02:08:00.638Z,2.3
2022-08-17T02:10:56.932Z,3.1
2022-08-17T02:11:57.852Z,4.0
2022-08-17T02:12:57.102Z,2.1
2022-08-17T02:14:56.951Z,2.8
2022-08-17T02:15:57.674Z,2.2
2022-08-17T02:16:56.896Z,2.9
2022-08-17T02:17:56.969Z,1.9
2022-08-17T02:18:56.919Z,2.1
2022-08-17T02:19:57.117Z,2.8
2022-08-17T02:20:57.680Z,3.3
2022-08-17T02:21:56.967Z,4.2
2022-08-17T02:22:57.008Z,2.6
2022-08-17T02:23:57.638Z,2.6
2022-08-17T02:24:59.469Z,2.6
2022-08-17T02:25:59.947Z,2.6
2022-08-17T02:26:56.878Z,2.3
2022-08-17T02:27:56.971Z,2.4
2022-08-17T02:29:57.177Z,2.1
2022-08-17T02:31:01.156Z,2.5
2022-08-17T02:31:58.698Z,2.9
2022-08-17T02:32:57.394Z,2.1
2022-08-17T02:34:03.734Z,2.9
2022-08-17T02:34:58.127Z,1.8
2022-08-17T02:35:58.063Z,4.1
2022-08-17T02:37:57.084Z,2.8
2022-08-17T02:39:58.688Z,2.3
2022-08-17T02:40:58.611Z,3.3
2022-08-17T02:42:02.951Z,2.6
2022-08-17T02:42:57.603Z,2.6
2022-08-17T02:43:56.860Z,4.7
2022-08-17T02:44:56.988Z,3.7
2022-08-17T02:45:57.061Z,4.0
2022-08-17T02:46:57.062Z,2.7
2022-08-17T02:47:57.084Z,3.0
2022-08-17T02:48:57.016Z,2.0
2022-08-17T02:50:56.848Z,2.9
2022-08-17T02:51:58.762Z,2.2
2022-08-17T02:54:39.131Z,2.0
2022-08-17T02:54:56.863Z,2.6
2022-08-17T02:55:56.909Z,1.9
2022-08-17T02:56:56.918Z,3.3
2022-08-17T02:57:57.611Z,2.2
2022-08-17T02:58:56.903Z,2.9
2022-08-17T02:59:56.827Z,2.5
2022-08-17T03:00:56.832Z,3.0
2022-08-17T03:01:57.039Z,2.9
2022-08-17T03:02:58.204Z,1.9
2022-08-17T03:03:57.263Z,1.8
2022-08-17T03:04:56.894Z,1.5
2022-08-17T03:05:56.954Z,2.4
2022-08-17T03:06:56.854Z,1.9
2022-08-17T03:07:57.783Z,2.9
2022-08-17T03:08:57.192Z,1.8
2022-08-17T03:09:56.870Z,2.6
2022-08-17T03:10:57.079Z,2.2
2022-08-17T03:12:04.397Z,3.2
2022-08-17T03:12:57.017Z,1.5
2022-08-17T03:13:56.994Z,2.0
2022-08-17T03:14:56.830Z,2.2
2022-08-17T03:15:56.919Z,2.3
2022-08-17T03:17:57.607Z,3.1
2022-08-17T03:18:57.298Z,2.8
2022-08-17T03:19:56.935Z,2.1
2022-08-17T03:20:59.326Z,2.5
2022-08-17T03:21:58.255Z,1.4
2022-08-17T03:23:01.742Z,1.9
2022-08-17T03:24:56.975Z,7.6
2022-08-17T03:25:57.256Z,4.3
2022-08-17T03:27:57.489Z,4.8
2022-08-17T03:28:56.936Z,2.1
2022-08-17T03:29:56.801Z,1.8
2022-08-17T03:30:57.061Z,3.1
2022-08-17T03:31:56.832Z,3.4
2022-08-17T03:35:57.136Z,4.2
2022-08-17T03:36:56.825Z,4.6
2022-08-17T03:38:00.890Z,1.0
2022-08-17T03:38:56.899Z,2.7
2022-08-17T03:39:57.045Z,2.6
2022-08-17T03:40:59.712Z,3.4
2022-08-17T03:42:07.903Z,2.0
2022-08-17T03:42:57.727Z,1.9
2022-08-17T03:43:56.785Z,1.1
2022-08-17T03:44:58.679Z,2.9
2022-08-17T03:46:06.434Z,1.4
2022-08-17T03:48:06.145Z,1.7
2022-08-17T03:49:06.387Z,1.9
2022-08-17T03:50:06.134Z,0.7
2022-08-17T03:51:11.464Z,1.1
2022-08-17T03:52:07.795Z,1.6
2022-08-17T03:53:06.721Z,2.1
2022-08-17T03:54:08.001Z,2.5
2022-08-17T03:55:06.134Z,2.8
2022-08-17T03:57:06.722Z,1.3
2022-08-17T03:57:56.893Z,2.4
2022-08-17T03:58:56.795Z,1.8
2022-08-17T04:00:57.313Z,2.0
2022-08-17T04:02:00.013Z,1.3
2022-08-17T04:02:56.817Z,1.6
2022-08-17T04:05:56.906Z,2.8
2022-08-17T04:07:57.115Z,1.1
2022-08-17T04:08:56.835Z,2.2
2022-08-17T04:09:58.364Z,1.7
2022-08-17T04:11:57.458Z,1.4
2022-08-17T04:14:57.327Z,0.9
2022-08-17T04:16:56.745Z,0.6
2022-08-17T04:19:57.097Z,0.5
2022-08-17T04:20:57.237Z,1.1
2022-08-17T04:22:59.955Z,0.9
2022-08-17T04:24:57.299Z,1.2
2022-08-17T04:25:57.461Z,1.7
2022-08-17T04:26:56.787Z,3.2
2022-08-17T04:27:58.223Z,1.0
2022-08-17T04:28:57.026Z,0.9
2022-08-17T04:29:56.771Z,0.9
2022-08-17T04:30:56.905Z,0.9
2022-08-17T04:31:56.804Z,2.1
2022-08-17T04:33:10.963Z,3.1
2022-08-17T04:33:57.041Z,2.2
2022-08-17T04:34:56.749Z,1.4
2022-08-17T04:36:00.032Z,1.5
2022-08-17T04:36:56.759Z,3.7
2022-08-17T04:37:57.488Z,1.7
2022-08-17T04:38:58.292Z,1.2
2022-08-17T04:40:06.113Z,0.6
2022-08-17T04:41:07.287Z,0.7
2022-08-17T04:43:03.171Z,0.5
2022-08-17T04:43:58.683Z,2.4
2022-08-17T04:44:56.766Z,1.3
2022-08-17T04:45:59.345Z,0.9
2022-08-17T04:46:56.837Z,1.3
2022-08-17T04:47:56.810Z,1.9
2022-08-17T04:48:58.515Z,1.7
2022-08-17T04:49:56.828Z,1.6
2022-08-17T04:52:57.171Z,1.1
2022-08-17T04:54:00.451Z,1.3
2022-08-17T04:54:57.026Z,2.2
2022-08-17T04:55:59.233Z,0.8
2022-08-17T04:56:56.792Z,1.3
2022-08-17T04:57:57.021Z,1.4
2022-08-17T04:58:59.259Z,1.7
2022-08-17T04:59:56.822Z,2.3
2022-08-17T05:00:56.913Z,1.1
2022-08-17T05:01:56.801Z,1.0
2022-08-17T05:02:57.547Z,1.1
2022-08-17T05:03:59.696Z,1.0
2022-08-17T05:05:56.802Z,2.6
2022-08-17T05:06:56.765Z,1.5
2022-08-17T05:07:59.163Z,0.9
2022-08-17T05:08:58.072Z,0.8
2022-08-17T05:09:56.749Z,2.5
2022-08-17T05:10:56.776Z,0.9
2022-08-17T05:11:56.775Z,0.8
2022-08-17T05:13:01.629Z,1.6
2022-08-17T05:13:58.661Z,1.1
2022-08-17T05:14:56.789Z,1.8
2022-08-17T05:16:56.850Z,1.6
2022-08-17T05:17:57.029Z,2.5
2022-08-17T05:18:58.773Z,2.7
2022-08-17T05:19:56.732Z,1.0
2022-08-17T05:20:57.044Z,1.2
2022-08-17T05:21:56.740Z,0.9
2022-08-17T05:22:59.886Z,1.6
2022-08-17T05:23:58.711Z,1.5
2022-08-17T05:24:56.795Z,1.7
2022-08-17T05:25:58.429Z,1.6
2022-08-17T05:26:56.743Z,2.1
2022-08-17T05:27:57.880Z,2.1
2022-08-17T05:29:00.558Z,1.3
2022-08-17T05:29:56.785Z,2.3
2022-08-17T05:30:58.375Z,1.8
2022-08-17T05:31:56.974Z,2.0
2022-08-17T05:33:00.457Z,1.9
2022-08-17T05:33:57.071Z,1.5
2022-08-17T05:35:00.722Z,3.3
2022-08-17T05:35:58.728Z,1.4
2022-08-17T05:36:56.755Z,4.7
2022-08-17T05:37:57.287Z,22.7
2022-08-17T05:38:56.811Z,15.7
2022-08-17T05:39:56.828Z,15.8
2022-08-17T05:40:58.685Z,6.5
2022-08-17T05:41:56.753Z,5.9
2022-08-17T05:43:06.743Z,2.9
2022-08-17T05:43:56.839Z,2.9
2022-08-17T05:44:59.008Z,3.6
2022-08-17T05:46:03.802Z,4.4
2022-08-17T05:47:00.109Z,2.7
2022-08-17T05:47:56.793Z,4.5
2022-08-17T05:49:03.755Z,4.2
2022-08-17T05:49:57.198Z,2.9
2022-08-17T05:51:01.315Z,3.2
2022-08-17T05:52:14.013Z,3.8
2022-08-17T05:53:06.574Z,3.9
2022-08-17T05:54:02.052Z,6.6
2022-08-17T05:55:04.301Z,8.0
2022-08-17T05:56:11.615Z,7.8
2022-08-17T05:57:05.535Z,11.9
2022-08-17T05:58:10.720Z,11.1
2022-08-17T05:59:02.125Z,9.0
2022-08-17T06:00:11.036Z,9.7
2022-08-17T06:01:10.824Z,6.5
2022-08-17T06:02:08.820Z,8.8
2022-08-17T06:03:14.673Z,8.3
2022-08-17T06:04:02.015Z,8.7
2022-08-17T06:05:14.691Z,8.7
2022-08-17T06:06:01.943Z,6.8
2022-08-17T06:07:07.461Z,14.1
2022-08-17T06:08:03.268Z,10.4
2022-08-17T06:09:01.610Z,8.9
2022-08-17T06:10:08.899Z,15.0
2022-08-17T06:11:00.984Z,8.1
2022-08-17T06:12:08.922Z,8.3
2022-08-17T06:13:13.836Z,9.1
2022-08-17T06:14:11.406Z,6.2
2022-08-17T06:15:12.897Z,7.2
2022-08-17T06:16:34.183Z,9.0
2022-08-17T06:17:03.059Z,5.9
2022-08-17T06:18:08.415Z,6.5
2022-08-17T06:19:01.597Z,6.2
2022-08-17T06:20:00.417Z,6.7
2022-08-17T06:21:02.535Z,7.7
2022-08-17T06:21:58.693Z,7.2
2022-08-17T06:23:05.500Z,9.7
2022-08-17T06:24:07.337Z,7.0
2022-08-17T06:25:02.500Z,6.9
2022-08-17T06:26:04.784Z,7.5
2022-08-17T06:27:07.558Z,8.3
2022-08-17T06:28:02.694Z,8.8
2022-08-17T06:29:02.982Z,8.3
2022-08-17T06:31:01.400Z,8.4
2022-08-17T06:32:59.990Z,8.0
2022-08-17T06:33:58.531Z,7.1
2022-08-17T06:34:58.040Z,8.4
2022-08-17T06:36:02.820Z,7.4
2022-08-17T06:37:09.525Z,7.2
2022-08-17T06:38:09.372Z,7.4
2022-08-17T06:39:05.133Z,6.1
2022-08-17T06:40:11.246Z,6.4
2022-08-17T06:41:02.436Z,11.7
2022-08-17T06:42:06.600Z,10.7
2022-08-17T06:43:12.761Z,7.1
2022-08-17T06:44:08.443Z,7.4
2022-08-17T06:45:08.323Z,7.0
2022-08-17T06:46:11.848Z,7.5
2022-08-17T06:47:04.021Z,8.0
2022-08-17T06:48:00.940Z,9.7
2022-08-17T06:49:08.076Z,9.7
2022-08-17T06:50:01.269Z,12.6
2022-08-17T06:51:04.296Z,10.0
2022-08-17T06:52:03.044Z,11.6
2022-08-17T06:53:04.121Z,10.0
2022-08-17T06:54:05.871Z,11.8
2022-08-17T06:55:00.463Z,10.9
2022-08-17T06:56:05.057Z,10.9
2022-08-17T06:57:10.602Z,9.2
2022-08-17T06:58:15.822Z,7.8
2022-08-17T06:58:59.322Z,9.8
2022-08-17T07:00:07.764Z,12.9
2022-08-17T07:00:59.810Z,10.8
2022-08-17T07:01:57.145Z,8.6
2022-08-17T07:06:03.885Z,24.9
2022-08-17T07:07:11.934Z,20.6
2022-08-17T07:08:03.588Z,18.5
2022-08-17T07:09:01.876Z,21.8
2022-08-17T07:10:00.785Z,19.3
2022-08-17T07:13:09.467Z,14.8
2022-08-17T07:15:11.390Z,25.0
2022-08-17T07:16:06.836Z,20.8
2022-08-17T07:16:59.554Z,17.0
2022-08-17T07:18:59.518Z,15.7
2022-08-17T07:20:06.403Z,16.9
2022-08-17T07:21:08.534Z,15.8
2022-08-17T07:22:14.156Z,17.2
2022-08-17T07:23:04.764Z,15.7
2022-08-17T07:24:26.219Z,18.1
2022-08-17T07:24:59.793Z,16.5
2022-08-17T07:26:07.016Z,15.7
2022-08-17T07:27:09.519Z,15.1
2022-08-17T07:28:00.910Z,16.2
2022-08-17T07:28:57.173Z,16.2
2022-08-17T07:30:08.143Z,11.9
2022-08-17T07:30:56.718Z,11.9
2022-08-17T07:31:57.574Z,13.5
2022-08-17T07:33:01.786Z,14.1
2022-08-17T07:34:14.569Z,9.8
2022-08-17T07:35:10.737Z,15.4
2022-08-17T07:35:59.470Z,13.3
2022-08-17T07:37:05.353Z,12.1
2022-08-17T07:38:05.293Z,13.4
2022-08-17T07:38:58.508Z,13.4
2022-08-17T07:40:15.235Z,13.0
2022-08-17T07:42:03.738Z,12.9
2022-08-17T07:43:57.757Z,11.2
2022-08-17T07:44:58.129Z,11.9
2022-08-17T07:46:22.653Z,9.1
2022-08-17T07:47:06.774Z,12.7
2022-08-17T07:48:06.078Z,7.5
2022-08-17T07:49:07.718Z,7.9
2022-08-17T07:49:56.745Z,7.9
2022-08-17T07:51:00.345Z,11.5
2022-08-17T07:52:47.318Z,9.7
2022-08-17T07:52:56.785Z,10.1
2022-08-17T07:54:14.085Z,9.9
2022-08-17T07:54:56.919Z,9.9
2022-08-17T07:55:56.725Z,8.0
2022-08-17T07:57:00.160Z,9.0
2022-08-17T07:57:59.046Z,6.8
2022-08-17T07:59:14.602Z,7.2
2022-08-17T08:01:05.266Z,7.6
2022-08-17T08:02:14.997Z,5.5
2022-08-17T08:03:58.303Z,6.7
2022-08-17T08:05:06.652Z,4.9
2022-08-17T08:06:02.118Z,4.9
2022-08-17T08:07:01.528Z,7.0
2022-08-17T08:08:00.243Z,6.2
2022-08-17T08:09:00.676Z,7.3
2022-08-17T08:10:06.353Z,7.7
2022-08-17T08:11:08.231Z,9.9
2022-08-17T08:11:56.820Z,9.9
2022-08-17T08:13:05.950Z,10.6
2022-08-17T08:13:58.617Z,10.6
2022-08-17T08:15:00.807Z,6.6
2022-08-17T08:16:07.201Z,9.8
2022-08-17T08:16:59.335Z,9.8
2022-08-17T08:17:59.765Z,13.1
2022-08-17T08:18:59.765Z,14.3
2022-08-17T08:21:02.838Z,12.9
2022-08-17T08:22:11.713Z,10.7
2022-08-17T08:23:11.563Z,5.5
2022-08-17T08:24:09.865Z,5.0
2022-08-17T08:25:07.482Z,7.2
2022-08-17T08:26:01.276Z,7.2
2022-08-17T08:27:12.940Z,8.2
2022-08-17T08:28:05.335Z,7.0
2022-08-17T08:29:01.534Z,7.0
2022-08-17T08:30:05.157Z,8.2
2022-08-17T08:31:14.613Z,8.2
2022-08-17T08:34:58.959Z,8.7
2022-08-17T08:35:06.867Z,7.8
2022-08-17T08:38:10.805Z,11.1
2022-08-17T08:40:02.031Z,8.3
2022-08-17T08:42:09.794Z,19.8
2022-08-17T08:43:12.760Z,21.4
2022-08-17T08:44:08.803Z,21.7
2022-08-17T08:45:04.396Z,21.7
2022-08-17T08:46:05.662Z,24.3
2022-08-17T08:47:00.483Z,20.9
2022-08-17T08:48:52.910Z,19.0
2022-08-17T08:49:12.172Z,19.0
2022-08-17T08:50:37.666Z,24.6
2022-08-17T08:51:00.559Z,24.6
2022-08-17T08:51:58.990Z,22.6
2022-08-17T08:53:12.965Z,25.5
2022-08-17T08:54:05.448Z,25.5
2022-08-17T08:55:09.211Z,20.5
2022-08-17T08:56:03.627Z,20.5
2022-08-17T08:57:24.289Z,20.1
2022-08-17T08:58:06.624Z,20.1
2022-08-17T08:59:07.401Z,21.2
2022-08-17T09:00:14.851Z,18.3
2022-08-17T09:00:59.265Z,18.3
2022-08-17T09:02:04.129Z,15.2
2022-08-17T09:03:14.620Z,15.8
2022-08-17T09:04:21.761Z,15.8
2022-08-17T09:05:14.680Z,17.2
2022-08-17T09:06:37.785Z,19.3
2022-08-17T09:07:03.201Z,19.3
2022-08-17T09:08:04.653Z,17.7
2022-08-17T09:10:09.225Z,17.1
2022-08-17T09:12:03.917Z,20.1
2022-08-17T09:14:07.507Z,20.9
2022-08-17T09:15:10.863Z,19.1
2022-08-17T09:16:07.808Z,17.1
2022-08-17T09:17:06.499Z,18.4
2022-08-17T09:18:59.112Z,15.6
2022-08-17T09:19:08.713Z,15.6
2022-08-17T09:20:04.857Z,13.5
2022-08-17T09:21:01.898Z,13.8
2022-08-17T09:22:02.723Z,15.8
2022-08-17T09:23:04.101Z,15.0
2022-08-17T09:24:07.125Z,12.9
2022-08-17T09:25:01.081Z,17.7
2022-08-17T09:29:04.054Z,21.6
2022-08-17T09:30:05.011Z,19.7
2022-08-17T09:31:03.531Z,16.1
2022-08-17T09:31:59.784Z,16.4
2022-08-17T09:33:59.792Z,16.3
2022-08-17T09:35:10.659Z,11.8
2022-08-17T09:38:11.185Z,11.6
2022-08-17T09:40:08.597Z,12.1
2022-08-17T09:41:08.079Z,13.8
2022-08-17T09:46:01.965Z,9.0
2022-08-17T09:48:00.039Z,6.3
2022-08-17T09:49:07.346Z,7.6
2022-08-17T09:54:14.737Z,6.1
2022-08-17T09:55:00.194Z,8.7
2022-08-17T09:56:13.645Z,8.5
2022-08-17T09:57:29.195Z,6.5
2022-08-17T09:58:05.356Z,6.7
2022-08-17T09:59:17.099Z,12.8
2022-08-17T10:00:17.402Z,16.0
2022-08-17T10:01:03.690Z,16.0
2022-08-17T10:02:11.663Z,17.6
2022-08-17T10:03:16.279Z,7.9
2022-08-17T10:04:11.514Z,7.9
2022-08-17T10:05:12.158Z,7.7
2022-08-17T10:06:00.182Z,9.0
2022-08-17T10:07:05.773Z,8.1
2022-08-17T10:08:09.473Z,6.5
2022-08-17T10:09:07.560Z,9.4
2022-08-17T10:09:59.653Z,9.7
2022-08-17T10:11:06.678Z,9.7
2022-08-17T10:12:17.743Z,11.5
2022-08-17T10:13:00.914Z,11.5
2022-08-17T10:14:03.419Z,7.2
2022-08-17T10:15:07.976Z,6.6
2022-08-17T10:16:08.280Z,6.3
2022-08-17T10:17:11.378Z,7.0
2022-08-17T10:18:14.549Z,8.0
2022-08-17T10:19:14.011Z,8.4
2022-08-17T10:21:18.647Z,9.7
2022-08-17T10:22:32.625Z,9.0
2022-08-17T10:23:16.671Z,6.9
2022-08-17T10:24:11.087Z,7.7
2022-08-17T10:25:22.449Z,6.3
2022-08-17T10:26:15.499Z,5.6
2022-08-17T10:27:00.896Z,7.1
2022-08-17T10:28:01.907Z,6.4
2022-08-17T10:29:03.050Z,6.1
2022-08-17T10:30:01.691Z,7.8
2022-08-17T10:31:30.996Z,8.5
2022-08-17T10:32:03.681Z,8.8
2022-08-17T10:33:01.648Z,7.6
2022-08-17T10:34:13.094Z,9.7
2022-08-17T10:35:04.235Z,9.6
2022-08-17T10:36:11.338Z,9.6
2022-08-17T10:37:11.815Z,10.3
2022-08-17T10:38:15.510Z,11.2
2022-08-17T10:39:10.470Z,11.7
2022-08-17T10:40:12.352Z,24.5
2022-08-17T10:41:07.822Z,10.1
2022-08-17T10:42:00.859Z,10.0
2022-08-17T10:43:02.856Z,10.8
2022-08-17T10:44:39.280Z,9.6
2022-08-17T10:48:06.358Z,9.9
2022-08-17T10:49:14.474Z,12.2
2022-08-17T10:49:57.762Z,9.6
2022-08-17T10:51:07.800Z,14.4
2022-08-17T10:51:59.057Z,23.1
2022-08-17T10:52:56.541Z,30.9
2022-08-17T10:53:59.063Z,24.1
2022-08-17T10:56:58.982Z,30.1
2022-08-17T10:58:14.744Z,32.4
2022-08-17T11:02:05.256Z,16.1
2022-08-17T11:04:01.399Z,13.3
2022-08-17T11:06:12.809Z,13.2
2022-08-17T11:07:12.008Z,13.5
2022-08-17T11:08:14.365Z,14.5
2022-08-17T11:09:05.207Z,15.7
2022-08-17T11:10:13.688Z,15.9
2022-08-17T11:11:06.961Z,16.1
2022-08-17T11:12:06.945Z,19.2
2022-08-17T11:13:09.407Z,15.8
2022-08-17T11:14:06.335Z,17.5
2022-08-17T11:15:12.414Z,17.2
2022-08-17T11:16:09.666Z,19.0
2022-08-17T11:17:14.764Z,15.3
2022-08-17T11:18:05.438Z,22.3
2022-08-17T11:19:14.570Z,19.7
2022-08-17T11:20:09.151Z,19.5
2022-08-17T11:21:05.109Z,17.3
2022-08-17T11:22:09.143Z,15.2
2022-08-17T11:23:14.854Z,14.7
2022-08-17T11:24:13.152Z,13.1
2022-08-17T11:25:07.759Z,15.2
2022-08-17T11:26:04.084Z,14.8
2022-08-17T11:28:07.193Z,12.0
2022-08-17T11:30:02.765Z,11.0
2022-08-17T11:36:12.677Z,7.6
2022-08-17T11:38:03.184Z,8.0
2022-08-17T11:40:13.705Z,8.8
2022-08-17T11:42:06.072Z,9.2
2022-08-17T11:43:07.681Z,9.6
2022-08-17T11:44:12.565Z,9.3
2022-08-17T11:44:58.391Z,10.0
2022-08-17T11:46:12.134Z,8.4
2022-08-17T11:47:23.516Z,8.7
2022-08-17T11:50:27.112Z,9.5
2022-08-17T11:51:18.635Z,11.0
2022-08-17T11:52:05.374Z,9.7
2022-08-17T11:52:56.720Z,9.7
2022-08-17T11:54:30.570Z,9.4
2022-08-17T11:56:06.278Z,10.9
2022-08-17T11:56:58.410Z,10.4
2022-08-17T12:00:58.531Z,10.8
2022-08-17T12:03:14.467Z,8.7
2022-08-17T12:04:07.109Z,10.7
2022-08-17T12:06:04.101Z,9.4
2022-08-17T12:07:09.323Z,13.2
2022-08-17T12:08:07.213Z,12.4
2022-08-17T12:09:02.932Z,10.9
2022-08-17T12:09:57.546Z,14.8
2022-08-17T12:12:57.153Z,11.6
2022-08-17T12:13:59.536Z,10.7
2022-08-17T12:15:10.122Z,10.2
2022-08-17T12:15:58.123Z,10.6
2022-08-17T12:18:59.722Z,10.4
2022-08-17T12:21:15.567Z,11.8
2022-08-17T12:22:04.318Z,12.2
2022-08-17T12:26:01.819Z,11.7
2022-08-17T12:26:59.585Z,9.3
2022-08-17T12:28:06.895Z,12.4
2022-08-17T12:29:01.129Z,13.0
2022-08-17T12:29:56.787Z,10.3
2022-08-17T12:31:12.482Z,10.5
2022-08-17T12:31:56.640Z,10.0
2022-08-17T12:32:57.289Z,9.4
2022-08-17T12:34:57.268Z,10.2
2022-08-17T12:36:00.780Z,11.2
2022-08-17T12:37:02.117Z,10.7
2022-08-17T12:39:12.926Z,8.9
2022-08-17T12:40:01.561Z,10.0
2022-08-17T12:42:02.357Z,8.5
2022-08-17T12:43:01.208Z,7.8
2022-08-17T12:44:56.905Z,7.2
2022-08-17T12:45:59.622Z,7.8
2022-08-17T12:48:07.958Z,7.0
2022-08-17T12:49:14.384Z,7.4
2022-08-17T12:51:02.560Z,7.1
2022-08-17T12:53:01.788Z,7.6
2022-08-17T12:54:59.813Z,8.5
2022-08-17T12:56:57.660Z,7.0
2022-08-17T12:58:56.852Z,9.2
2022-08-17T13:00:02.265Z,10.6
2022-08-17T13:01:02.681Z,11.3
2022-08-17T13:01:56.886Z,9.3
2022-08-17T13:03:00.621Z,13.5
2022-08-17T13:04:00.314Z,13.5
2022-08-17T13:04:59.229Z,11.8
2022-08-17T13:07:59.012Z,14.2
2022-08-17T13:12:00.466Z,11.3
2022-08-17T13:12:57.090Z,10.0
2022-08-17T13:14:57.708Z,10.1
2022-08-17T13:16:00.117Z,9.5
2022-08-17T13:17:00.023Z,11.4
2022-08-17T13:18:08.099Z,11.1
2022-08-17T13:19:06.060Z,10.7
2022-08-17T13:19:56.622Z,10.3
2022-08-17T13:20:59.884Z,9.2
2022-08-17T13:22:00.109Z,9.6
2022-08-17T13:24:01.570Z,8.6
2022-08-17T13:25:58.452Z,9.2
2022-08-17T13:31:14.396Z,9.9
2022-08-17T13:35:12.900Z,10.0
2022-08-17T13:38:01.617Z,9.9
2022-08-17T13:39:14.418Z,8.9
2022-08-17T13:40:00.080Z,10.5
2022-08-17T13:40:56.401Z,9.3
2022-08-17T13:41:56.437Z,8.7
2022-08-17T13:42:57.988Z,9.7
2022-08-17T13:43:56.444Z,9.5
2022-08-17T13:44:56.490Z,10.1
2022-08-17T13:46:10.117Z,10.1
2022-08-17T13:46:57.308Z,10.3
2022-08-17T13:49:05.775Z,9.9
2022-08-17T13:54:01.549Z,9.8
2022-08-17T14:05:56.539Z,10.1
2022-08-17T14:06:59.003Z,10.4
2022-08-17T14:07:59.003Z,8.9
2022-08-17T14:08:57.228Z,10.0
2022-08-17T14:10:59.542Z,10.8
2022-08-17T14:12:56.911Z,9.4
2022-08-17T14:13:56.345Z,9.2
2022-08-17T14:14:57.149Z,9.5
2022-08-17T14:15:56.890Z,11.0
2022-08-17T14:16:57.675Z,8.9
2022-08-17T14:17:56.704Z,10.6
2022-08-17T14:18:57.535Z,7.5
2022-08-17T14:19:56.599Z,13.1
2022-08-17T14:21:59.047Z,10.2
2022-08-17T14:24:56.576Z,8.4
2022-08-17T14:29:58.193Z,9.3
2022-08-17T14:30:56.439Z,10.0
2022-08-17T14:32:56.701Z,9.6
2022-08-17T14:33:56.426Z,9.2
2022-08-17T14:34:57.861Z,10.2
2022-08-17T14:35:57.755Z,12.2
2022-08-17T14:36:57.153Z,12.4
2022-08-17T14:37:57.486Z,12.1
2022-08-17T14:38:56.568Z,14.9
2022-08-17T14:40:56.812Z,15.1
2022-08-17T14:42:58.067Z,12.3
2022-08-17T14:43:56.357Z,12.0
2022-08-17T14:44:58.794Z,14.6
2022-08-17T14:45:56.348Z,11.1
2022-08-17T14:46:56.633Z,11.8
2022-08-17T14:47:56.369Z,13.3
2022-08-17T14:48:57.497Z,12.5
2022-08-17T14:49:56.326Z,10.1
2022-08-17T14:54:57.203Z,10.9
2022-08-17T14:57:04.663Z,8.9
2022-08-17T14:57:56.345Z,9.7
2022-08-17T14:58:56.575Z,8.5
2022-08-17T15:05:02.051Z,7.1
2022-08-17T15:07:56.332Z,6.6
2022-08-17T15:08:56.348Z,9.1
2022-08-17T15:09:56.853Z,8.0
2022-08-17T15:10:56.345Z,7.8
2022-08-17T15:11:56.848Z,10.2
2022-08-17T15:13:56.314Z,8.9
2022-08-17T15:15:56.952Z,7.0
2022-08-17T15:16:56.521Z,9.2
2022-08-17T15:17:56.894Z,6.9
2022-08-17T15:18:56.287Z,10.6
2022-08-17T15:21:56.356Z,8.2
2022-08-17T15:23:56.367Z,11.9
2022-08-17T15:25:56.420Z,13.5
2022-08-17T15:26:56.462Z,10.2
2022-08-17T15:27:56.396Z,10.2
2022-08-17T15:28:57.446Z,11.8
2022-08-17T15:29:56.607Z,12.0
2022-08-17T15:32:00.458Z,10.0
2022-08-17T15:32:59.499Z,12.8
2022-08-17T15:36:56.393Z,9.5
2022-08-17T15:46:01.916Z,9.8
2022-08-17T15:46:56.308Z,9.1
2022-08-17T15:48:59.056Z,11.3
2022-08-17T15:50:00.018Z,13.4
2022-08-17T15:52:59.233Z,8.7
2022-08-17T15:53:59.770Z,7.2
2022-08-17T15:54:59.896Z,8.8
2022-08-17T15:55:56.269Z,8.8
2022-08-17T15:56:56.349Z,8.4
2022-08-17T15:57:56.306Z,9.7
2022-08-17T15:58:56.494Z,8.5
2022-08-17T15:59:58.524Z,9.0
2022-08-17T16:01:14.853Z,9.0
2022-08-17T16:03:13.702Z,8.0
2022-08-17T16:03:44.641Z,8.3
2022-08-17T16:04:04.318Z,8.3
2022-08-17T16:05:56.521Z,7.1
2022-08-17T16:09:56.679Z,8.3
2022-08-17T16:11:56.658Z,8.5
2022-08-17T16:16:56.310Z,11.5
2022-08-17T16:18:58.726Z,10.7
2022-08-17T16:21:56.363Z,10.6
2022-08-17T16:22:56.302Z,11.4
2022-08-17T16:24:01.502Z,12.1
2022-08-17T16:24:57.422Z,12.1
2022-08-17T16:25:56.267Z,14.6
2022-08-17T16:26:56.971Z,11.7
2022-08-17T16:27:56.393Z,12.6
2022-08-17T16:28:57.232Z,10.9
2022-08-17T16:29:56.397Z,14.1
2022-08-17T16:30:56.321Z,13.3
2022-08-17T16:32:57.972Z,10.7
2022-08-17T16:34:15.833Z,11.4
2022-08-17T16:34:56.409Z,12.9
2022-08-17T16:35:56.240Z,16.1
2022-08-17T16:39:56.327Z,12.5
2022-08-17T16:40:56.241Z,9.5
2022-08-17T16:41:56.726Z,8.8
2022-08-17T16:42:57.692Z,9.1
2022-08-17T16:44:57.985Z,11.0
2022-08-17T16:45:56.652Z,10.5
2022-08-17T16:46:57.537Z,9.4
2022-08-17T16:47:59.244Z,7.7
2022-08-17T16:51:00.324Z,10.2
2022-08-17T16:56:56.383Z,9.8
2022-08-17T17:00:59.865Z,7.3
2022-08-17T17:08:04.327Z,10.3
2022-08-17T17:09:56.487Z,8.5
2022-08-17T17:10:57.100Z,7.7
2022-08-17T17:11:59.530Z,8.9
2022-08-17T17:14:01.736Z,7.6
2022-08-17T17:15:01.770Z,4.8
2022-08-17T17:16:03.554Z,6.4
2022-08-17T17:17:06.232Z,4.5
2022-08-17T17:18:06.179Z,4.5
2022-08-17T17:19:12.593Z,4.8
2022-08-17T17:20:06.552Z,6.4
2022-08-17T17:20:58.353Z,6.4
2022-08-17T17:22:00.511Z,6.3
2022-08-17T17:23:08.589Z,4.6
2022-08-17T17:24:00.696Z,4.6
2022-08-17T17:25:02.227Z,4.9
2022-08-17T17:26:07.849Z,6.1
2022-08-17T17:28:10.656Z,3.6
2022-08-17T17:29:05.072Z,3.6
2022-08-17T17:30:05.527Z,5.0
2022-08-17T17:31:03.932Z,2.5
2022-08-17T17:32:10.682Z,4.9
2022-08-17T17:33:04.479Z,4.9
2022-08-17T17:34:00.632Z,3.5
2022-08-17T17:35:59.968Z,2.2
2022-08-17T17:37:02.291Z,3.6
2022-08-17T17:39:10.330Z,3.6
2022-08-17T17:39:58.433Z,3.6
2022-08-17T17:41:59.407Z,2.8
2022-08-17T17:43:14.207Z,5.5
2022-08-17T17:44:03.458Z,2.6